Tiempo atmosférico en la estación meteorológica de Soria, Soria (1082 m.)



Fecha
DESCASC
Temp. máxima en grados centígrados (hora)
DESCASC
Temp. mínima en grados centígrados (hora)
DESCASC
Temp. media en grados centígrados
DESCASC
Racha de viento máxima en m/sg (hora)
DESCASC
Velocidad máxima media en intervalos de 10 minutos(hora)
DESCASC
Precipitaciones diarias en mm
DESCASC
Precipitaciones de 00:00 a 06:00 en mm
DESCASC
Precipitaciones de 06:00 a 12:00 en mm
DESCASC
Precipitaciones de 12:00 a 18:00 en mm
DESCASC
Precipitaciones de 18:00 a 24:00 en mm
DESCASC
02-04-2020 10.2 (15:10) 3 (23:59) 6.6 10.56 (13:10) 5.83 (15:30) 1 0 1 0 0
01-04-2020 8.4 (17:00) 3.5 (08:00) 5.9 8.89 (03:20) 4.17 (02:10) 8.8 2.8 6 0 0
31-03-2020 4 (23:10) -2.3 (-00:0) 0.9 9.17 (23:00) 4.72 (18:30) 14.2 1.6 3.6 8.4 0.6
30-03-2020 4.1 (16:50) -0.2 (23:59) 1.9 11.11 (11:40) 5.83 (11:40) 0 0 0 0 0
29-03-2020 15.9 (14:30) 0.8 (00:00) 8.3 11.94 (17:40) 6.67 (17:40) 0 0 0 0 0
28-03-2020 15.7 (16:10) -1.9 (-00:0) 6.9 5.56 (14:40) 2.78 (14:10) 0 0 0 0 0
27-03-2020 11.8 (15:50) -3 (-00:0) 4.4 7.78 (18:00) 3.89 (09:30) 0 0 0 0 0
26-03-2020 10.1 (16:20) -0.1 (00:00) 5 10.56 (10:40) 4.72 (08:50) 0 0 0 0 0
25-03-2020 14.8 (14:40) 0.5 (00:00) 7.7 8.33 (17:30) 4.17 (17:10) 0 0 0 0 0
24-03-2020 9.9 (18:20) 4.6 (00:00) 7.2 7.22 (09:30) 4.72 (09:20) 0 0 0 0 0
23-03-2020 11.1 (10:20) 5.2 (00:00) 8.2 7.78 (12:40) 4.72 (15:20) 0.4 0 0 0.4 0
22-03-2020 13.3 (15:30) 4.7 (23:00) 9 8.33 (15:30) 4.72 (17:00) 0 0 0 0 0
21-03-2020 10.5 (14:40) 4.2 (00:00) 7.3 6.39 (00:20) 3.06 (01:50) 0 0 0 0 0
20-03-2020 11 (17:40) 3.1 (00:00) 7 5.83 (11:50) 3.61 (12:30) 0 0 0 0 0
19-03-2020 14.9 (15:40) 3.5 (00:00) 9.2 7.78 (13:00) 3.61 (13:00) 0 0 0 0 0
18-03-2020 15.3 (17:10) 3.9 (00:00) 9.6 5.28 (13:10) 2.78 (11:20) 0 0 0 0 0
17-03-2020 10.2 (15:30) 5 (00:00) 7.6 10 (00:30) 5.28 (00:30) 0.4 0 0.4 0 0
16-03-2020 7.2 (00:00) 0.8 (00:00) 4 13.06 (17:00) 7.5 (17:00) 29.2 10.8 15 3 0.4
15-03-2020 17.8 (16:20) 0.7 (00:00) 9.2 11.39 (19:00) 6.39 (17:30) 11.6 0 0 0 11.6
14-03-2020 19.1 (16:20) 0.7 (00:00) 9.9 5.28 (18:20) 2.78 (18:40) 0 0 0 0 0
13-03-2020 17.4 (15:30) 5.8 (23:59) 11.6 7.78 (07:30) 4.44 (06:10) 0 0 0 0 0
12-03-2020 24.7 (14:40) 5.7 (00:00) 15.2 9.72 (13:10) 4.72 (18:30) 0 0 0 0 0
11-03-2020 23.7 (16:40) 4.1 (00:00) 13.9 8.33 (17:20) 4.72 (15:40) 0 0 0 0 0
10-03-2020 20.3 (14:10) 4.8 (00:00) 12.5 9.44 (16:00) 6.11 (15:30) 0 0 0 0 0
09-03-2020 14.4 (14:30) 3.2 (00:00) 8.8 8.06 (13:40) 4.17 (01:50) 0 0 0 0 0
08-03-2020 14.8 (13:40) -2.1 (-00:0) 6.4 10.28 (16:50) 5.56 (15:10) 0 0 0 0 0
07-03-2020 12.8 (16:10) 2 (00:00) 7.4 12.78 (03:00) 4.72 (03:00) 0 0 0 0 0
06-03-2020 7.9 (14:50) 2 (00:00) 5 13.33 (09:30) 6.11 (07:50) 1.6 0.8 0.8 0 0
05-03-2020 11.2 (16:30) 2.9 (00:00) 7 17.5 (13:50) 9.17 (11:30) 6.2 0 3.2 1 2

Gráficas

Temp. máximas Temp. mínimas Temp. medias Precipitaciones Rachas de viento máximas Velocidades máximas media en intervalos de 10 minutos

Datos horarios

Fecha y hora oficial Temperatura (ºC) Velocidad del viento (km/h) Dirección del viento Racha (km/h) Dirección de racha Precipitación (mm) Presión (hPa) Tendencia (hPa) Humedad (%)
2020-04-03 23:00:00 6.5 3 Nordeste 10 Este 0 893.5 1.2 71
2020-04-03 22:00:00 8 3 Este 10 Nordeste 0 893.2 1.1 63
2020-04-03 21:00:00 10.7 4 Sur 13 Sur 0 892.5 0.5 41
2020-04-03 20:00:00 13.1 8 Sur 15 Sur 0 892.3 0.1 41
2020-04-03 19:00:00 14.9 7 Sur 15 Sudoeste 0 892.1 -0.4 33
2020-04-03 18:00:00 15.2 8 Sudeste 17 Sur 0 892 -1 31
2020-04-03 17:00:00 15.2 5 Sudoeste 18 Sur 0 892.2 -1 32
2020-04-03 16:00:00 14.8 4 Sudeste 12 Este 0 892.5 -1.2 27
2020-04-03 15:00:00 13.7 4 Sudeste 12 Nordeste 0 893 -0.7 26
2020-04-03 14:00:00 12.7 6 Este 12 Sudeste 0 893.2 -0.6 30
2020-04-03 13:00:00 10.5 3 Oeste 12 Oeste 0 893.7 0.3 30
2020-04-03 12:00:00 8.9 4 Este 9 Este 0 893.7 0.5 38
2020-04-03 11:00:00 6.7 3 Este 7 Sur 0 893.8 1.2 48
2020-04-03 10:00:00 3.4 3 Sudeste 7 Sudoeste 0 893.4 1.3 68
2020-04-03 09:00:00 -0.8 4 Sudoeste 7 Sudoeste 0 893.2 1.3 83
2020-04-03 08:00:00 -1.8 0 Calma 7 Noroeste 0 892.6 0.7 83
2020-04-03 07:00:00 -1.2 0 Calma 9 Norte 0 892.1 0.2 79
2020-04-03 06:00:00 -0.5 3 Noroeste 11 Norte 0 891.9 -0.4 80
2020-04-03 05:00:00 0.2 5 Norte 10 Noroeste 0 891.9 -0.4 78
2020-04-03 04:00:00 -0.2 3 Norte 8 Nordeste 0 891.9 -0.4 83
2020-04-03 03:00:00 0.8 3 Nordeste 15 Nordeste 0 892.3 -0.1 80
2020-04-03 02:00:00 2 10 Nordeste 14 Nordeste 0 892.3 -0.2 74
2020-04-03 01:00:00 2.7 5 Norte 14 Norte 0 892.3 0.3 74
2020-04-03 00:00:00 3 3 Norte 12 Norte 0 892.4 1.3 78
2020-04-02 23:00:00 4.2 7 Nordeste 27 Nordeste 0 892.5 1.7 75
2020-04-02 22:00:00 5.6 5 Norte 18 Norte 0 892 1.7 76
2020-04-02 21:00:00 6.5 5 Norte 24 Nordeste 0 891.1 1.3 75
2020-04-02 20:00:00 7.4 8 Norte 34 Nordeste 0 890.8 1 71
2020-04-02 19:00:00 8.4 20 Nordeste 35 Nordeste 0 890.3 0.5 63
2020-04-02 18:00:00 9.3 13 Norte 35 Nordeste 0 889.8 0 64
2020-04-02 17:00:00 8.6 20 Nordeste 33 Nordeste 0 889.8 0.1 65
2020-04-02 16:00:00 9.4 9 Norte 34 Nordeste 0 889.8 0 68
2020-04-02 15:00:00 10 17 Norte 31 Norte 0 889.8 0.2 66
2020-04-02 14:00:00 8.7 12 Norte 38 Nordeste 0 889.7 0.4 75
2020-04-02 13:00:00 9.3 19 Norte 37 Nordeste 0 889.8 0.9 66
2020-04-02 12:00:00 8.4 15 Nordeste 31 Nordeste 0 889.6 1 72
2020-04-02 11:00:00 7.2 14 Nordeste 25 Nordeste 0 889.3 1 82
2020-04-02 10:00:00 5.3 8 Norte 15 Norte 0 888.9 1.1 93
2020-04-02 09:00:00 4.8 3 Noroeste 6 Norte 0.2 888.6 0.8 97
2020-04-02 08:00:00 4.5 0 Calma 6 Nordeste 0.8 888.3 0.3 97
2020-04-02 07:00:00 4.5 3 Nordeste 6 Nordeste 0 887.8 -0.6 95
2020-04-02 06:00:00 4.4 2 Sudeste 5 Nordeste 0 887.8 -1.2 96
2020-04-02 05:00:00 4.6 2 Este 10 Este 0 888 -1.2 95
2020-04-02 04:00:00 4.8 4 Nordeste 9 Este 0 888.4 -1 96
2020-04-02 03:00:00 4.8 5 Este 9 Nordeste 0 889 -0.7 96
2020-04-02 02:00:00 5 2 Sudoeste 4 Oeste 0 889.2 -0.4 96
2020-04-02 01:00:00 4.9 3 Nordeste 10 Nordeste 0 889.4 0.1 96
2020-04-02 00:00:00 4.9 5 Nordeste 10 Este 0 889.7 0.8 96
2020-04-01 23:00:00 4.9 4 Este 13 Nordeste 0 889.6 0.9 96
2020-04-01 22:00:00 5.4 7 Nordeste 14 Nordeste 0 889.3 0.9 93
2020-04-01 21:00:00 5.8 6 Este 13 Este 0 888.9 0.6 91
2020-04-01 20:00:00 6.4 9 Este 17 Este 0 888.7 0.5 91
2020-04-01 19:00:00 7 9 Nordeste 17 Este 0 888.4 -0.1 88
2020-04-01 18:00:00 7.8 9 Este 18 Este 0 888.3 -0.6 83
2020-04-01 17:00:00 8.4 9 Este 14 Este 0 888.2 -1.1 81
2020-04-01 16:00:00 7.9 2 Nordeste 13 Este 0 888.5 -1.1 83
2020-04-01 15:00:00 6.8 8 Este 14 Este 0 888.9 -0.9 88
2020-04-01 14:00:00 6.6 8 Este 18 Este 0 889.3 -0.4 88
2020-04-01 13:00:00 5.4 7 Sudeste 22 Sudeste 0 889.6 0.3 94
2020-04-01 12:00:00 4.6 6 Nordeste 19 Este 0.4 889.8 0.7 97
2020-04-01 11:00:00 4.3 13 Este 21 Este 0.2 889.7 1 95
2020-04-01 10:00:00 4.1 8 Nordeste 14 Nordeste 0 889.3 0.8 97
2020-04-01 09:00:00 3.7 6 Este 16 Este 0.6 889.1 0.5 99
2020-04-01 08:00:00 3.5 9 Este 19 Este 1.4 888.7 0 97
2020-04-01 07:00:00 3.7 4 Este 17 Sudeste 3.4 888.5 -0.1 97
2020-04-01 06:00:00 4.1 5 Sudeste 15 Sudeste 1.4 888.6 -0.1 99
2020-04-01 05:00:00 4.2 10 Sudeste 25 Sudeste 1 888.7 -0.2 99
2020-04-01 04:00:00 4.2 9 Sudeste 32 Sudeste 0 888.6 -0.5 98
2020-04-01 03:00:00 4.3 10 Sudeste 31 Sudeste 0 888.7 -0.3 97
2020-04-01 02:00:00 4.2 14 Este 26 Este 0.2 888.9 0 98
2020-04-01 01:00:00 4.1 12 Este 26 Este 0.2 889.1 0.6 99
2020-04-01 00:00:00 4 10 Sudeste 28 Este 0.6 889 0.8 98
2020-03-31 23:00:00 3.9 14 Este 33 Este 0 888.9 1.3 97
2020-03-31 22:00:00 3.8 13 Este 24 Este 0 888.5 1.2 97
2020-03-31 21:00:00 3.7 13 Este 29 Este 0 888.2 1.1 96
2020-03-31 20:00:00 3.6 12 Este 28 Este 0 887.6 0.3 96
2020-03-31 19:00:00 3.8 17 Este 31 Este 0 887.3 0 94
2020-03-31 18:00:00 3.3 14 Este 30 Sudeste 0.4 887.1 0 96
2020-03-31 17:00:00 2.4 12 Este 26 Sudeste 1.6 887.3 0.2 96
2020-03-31 16:00:00 1.9 14 Este 24 Este 1.2 887.3 0.2 95
2020-03-31 15:00:00 1.8 13 Este 28 Este 2 887.1 -0.1 94
2020-03-31 14:00:00 1.6 12 Este 24 Este 1.4 887.1 0.1 93
2020-03-31 13:00:00 1.2 9 Este 21 Este 1.8 887.1 0.3 94
2020-03-31 12:00:00 0.6 9 Este 16 Este 1.6 887.2 0.4 95
2020-03-31 11:00:00 -0.3 8 Nordeste 13 Nordeste 0.8 887 0.7 95
2020-03-31 10:00:00 -1 9 Nordeste 17 Nordeste 0.6 886.8 0.6 94
2020-03-31 09:00:00 -1.4 9 Nordeste 16 Nordeste 0.6 886.8 0.6 94
2020-03-31 08:00:00 -1.8 9 Nordeste 16 Este 0 886.3 -0.1 94
2020-03-31 07:00:00 -1.8 9 Nordeste 17 Nordeste 0 886.2 -1.1 91
2020-03-31 06:00:00 -1.9 9 Nordeste 26 Nordeste 0 886.2 -1.7 88
2020-03-31 05:00:00 -2.2 13 Este 25 Nordeste 0.8 886.4 -2.2 92
2020-03-31 04:00:00 -1.7 9 Este 18 Este 0.4 887.3 -1.6 93
2020-03-31 03:00:00 -1.5 10 Este 20 Este 0.4 887.9 -1.2 92
2020-03-31 02:00:00 -1 10 Nordeste 23 Nordeste 0 888.6 -0.9 86
2020-03-31 01:00:00 -0.4 13 Nordeste 24 Nordeste 0 888.9 -0.6 71
2020-03-31 00:00:00 -0.2 12 Nordeste 27 Nordeste 0 889.1 -0.2 69
2020-03-30 23:00:00 0.1 12 Nordeste 25 Nordeste 0 889.5 0.2 72
2020-03-30 22:00:00 0.6 13 Nordeste 26 Nordeste 0 889.5 0.2 65
2020-03-30 21:00:00 1.1 12 Nordeste 30 Nordeste 0 889.3 0 57
2020-03-30 20:00:00 1.8 14 Nordeste 26 Nordeste 0 889.3 -0.4 51
2020-03-30 19:00:00 2.6 13 Norte 31 Nordeste 0 889.3 -0.9 46
2020-03-30 18:00:00 3.3 16 Nordeste 33 Nordeste 0 889.3 -1.4 44
2020-03-30 17:00:00 3.4 18 Nordeste 32 Nordeste 0 889.7 -1.6 44
2020-03-30 16:00:00 3.3 15 Nordeste 33 Nordeste 0 890.2 -1.4 43
2020-03-30 15:00:00 3.3 13 Norte 30 Nordeste 0 890.7 -1.1 47
2020-03-30 14:00:00 2 14 Nordeste 30 Nordeste 0 891.3 -0.7 54
2020-03-30 13:00:00 1 17 Norte 37 Nordeste 0 891.6 -0.3 57
2020-03-30 12:00:00 0.9 17 Norte 40 Norte 0 891.8 0.1 58
2020-03-30 11:00:00 0.7 17 Norte 34 Nordeste 0 892 0.6 60
2020-03-30 10:00:00 0.1 13 Norte 31 Nordeste 0 891.9 0.6 59
2020-03-30 09:00:00 0 12 Norte 37 Nordeste 0 891.7 0.3 65
2020-03-30 08:00:00 0.1 12 Norte 34 Nordeste 0 891.4 -0.5 66
2020-03-30 07:00:00 0.6 12 Norte 32 Norte 0 891.3 -0.7 65
2020-03-30 06:00:00 1 18 Norte 37 Norte 0 891.4 -1 74
2020-03-30 05:00:00 1.4 14 Norte 28 Norte 0 891.9 -0.8 78
2020-03-30 04:00:00 2.1 14 Nordeste 28 Norte 0 892 -0.9 78
2020-03-30 03:00:00 2.6 14 Norte 27 Norte 0 892.4 -0.8 80
2020-03-30 02:00:00 3.1 8 Norte 19 Norte 0 892.7 -0.7 79
2020-03-30 01:00:00 3.6 6 Norte 25 Norte 0 892.9 -0.3 80
2020-03-30 00:00:00 4 11 Norte 30 Norte 0 893.2 0.2 76
2020-03-29 23:00:00 4.9 13 Norte 33 Norte 0 893.4 0.5 77
2020-03-29 22:00:00 5.8 12 Norte 40 Nordeste 0 893.2 0.8 73
2020-03-29 21:00:00 7 16 Norte 35 Nordeste 0 893 0.9 65
2020-03-29 20:00:00 8.6 18 Norte 38 Nordeste 0 892.9 0.7 56
2020-03-29 19:00:00 10.6 17 Norte 40 Norte 0 892.4 -0.2 47
2020-03-29 18:00:00 13 19 Norte 43 Nordeste 0 892.1 -1 38
2020-03-29 17:00:00 14.5 18 Norte 33 Nordeste 0 892.2 -1.4 29
2020-03-29 16:00:00 15.2 16 Nordeste 33 Nordeste 0 892.6 -1.6 26
2020-03-29 15:00:00 15.7 10 Nordeste 25 Nordeste 0 893.1 -1.5 26
2020-03-29 14:00:00 15.1 6 Sudoeste 17 Nordeste 0 893.6 -1.2 31
2020-03-29 13:00:00 14.4 7 Nordeste 17 Nordeste 0 894.2 -0.5 35
2020-03-29 12:00:00 13.2 3 Sudeste 12 Este 0 894.6 -0.2 40
2020-03-29 11:00:00 10.5 4 Este 8 Norte 0 894.8 0.1 53
2020-03-29 10:00:00 6 2 Noroeste 9 Norte 0 894.7 0.2 72
2020-03-29 09:00:00 1.8 4 Noroeste 9 Norte 0 894.8 0.2 88
2020-03-29 08:00:00 0.9 0 Calma 4 Norte 0 894.7 0 86
2020-03-29 07:00:00 1.4 3 Noroeste 6 Nordeste 0 894.5 -0.5 87
2020-03-29 06:00:00 1.2 2 Nordeste 8 Norte 0 894.6 -0.8 85
2020-03-29 05:00:00 1.6 0 Calma 4 Norte 0 894.7 -1 82
2020-03-29 03:00:00 3.6 4 Nordeste 9 Nordeste 0 895.4 -0.3 74
2020-03-29 01:00:00 4.3 2 Nordeste 6 Nordeste 0 895.7 0 72
2020-03-29 00:00:00 5.4 0 Calma 4 Norte 0 895.8 0.5 68
2020-03-28 23:00:00 6.2 2 Norte 8 Nordeste 0 895.7 1.2 63
2020-03-28 22:00:00 7.2 7 Nordeste 11 Nordeste 0 895.7 1.8 60
2020-03-28 21:00:00 8.5 3 Norte 9 Este 0 895.3 1.8 58
2020-03-28 20:00:00 10.7 6 Este 11 Sudeste 0 894.5 1.3 50
2020-03-28 19:00:00 12 5 Sudeste 13 Sudeste 0 893.9 0.6 45
2020-03-28 18:00:00 13.2 7 Este 17 Sudeste 0 893.5 0 39
2020-03-28 17:00:00 14.5 5 Este 17 Este 0 893.2 -0.7 38
2020-03-28 16:00:00 15.4 9 Sudeste 18 Oeste 0 893.3 -0.9 35
2020-03-28 15:00:00 14.4 9 Sur 20 Sudeste 0 893.5 -1.1 36
2020-03-28 14:00:00 13.9 7 Sur 19 Sudeste 0 893.9 -0.6 37
2020-03-28 13:00:00 13.6 7 Este 12 Sudeste 0 894.2 -0.2 37
2020-03-28 12:00:00 12.2 5 Sudoeste 12 Este 0 894.6 0.5 42
2020-03-28 11:00:00 10.6 4 Sur 9 Este 0 894.5 0.7 47
2020-03-28 10:00:00 7.5 3 Norte 6 Noroeste 0 894.4 0.8 53
2020-03-28 09:00:00 3.1 3 Noroeste 6 Norte 0 894.1 0.9 62
2020-03-28 08:00:00 -1.3 2 Norte 4 Noroeste 0 893.8 1 79
2020-03-28 07:00:00 -1.9 2 Norte 5 Norte 0 893.6 1 76
2020-03-28 06:00:00 -1.6 2 Noroeste 6 Noroeste 0 893.2 0.5 76
2020-03-28 05:00:00 -1.3 0 Calma 8 Nordeste 0 892.8 0.2 70
2020-03-28 04:00:00 -1 0 Calma 3 Norte 0 892.6 0.3 69
2020-03-28 03:00:00 -0.3 0 Calma 5 Norte 0 892.7 0.7 64
2020-03-28 02:00:00 0.1 2 Norte 5 Sudeste 0 892.6 0.8 68
2020-03-28 01:00:00 0.9 3 Nordeste 8 Norte 0 892.3 0.7 64
2020-03-28 00:00:00 1.6 0 Calma 8 Nordeste 0 892 0.8 63
2020-03-27 23:00:00 2.5 4 Nordeste 10 Norte 0 891.8 1.4 60
2020-03-27 22:00:00 3.3 4 Este 10 Norte 0 891.6 1.7 59
2020-03-27 21:00:00 4.2 4 Norte 10 Este 0 891.2 1.9 55
2020-03-27 20:00:00 5.8 6 Este 14 Este 0 890.4 1.5 47
2020-03-27 19:00:00 8.2 10 Nordeste 20 Este 0 889.9 1 40
2020-03-27 18:00:00 10.2 11 Este 28 Nordeste 0 889.3 0.2 39
2020-03-27 17:00:00 11.2 9 Sudeste 21 Sudeste 0 888.9 -0.4 37
2020-03-27 16:00:00 11.5 12 Sudeste 23 Este 0 888.9 -0.4 37
2020-03-27 15:00:00 11.3 10 Sudeste 24 Este 0 889.1 -0.6 40
2020-03-27 14:00:00 10.5 11 Sudeste 23 Sudeste 0 889.3 -0.6 37
2020-03-27 13:00:00 9.5 9 Sudeste 23 Sudeste 0 889.3 -0.6 41
2020-03-27 12:00:00 8.2 8 Este 20 Este 0 889.7 0.3 41
2020-03-27 11:00:00 6.1 10 Este 23 Este 0 889.9 1 49
2020-03-27 10:00:00 4.3 11 Este 25 Este 0 889.9 1.4 57
2020-03-27 09:00:00 1.4 14 Nordeste 23 Nordeste 0 889.4 1.1 72
2020-03-27 08:00:00 -1.6 5 Este 14 Este 0 888.9 1.1 85
2020-03-27 07:00:00 -2.3 8 Nordeste 12 Nordeste 0 888.5 0.7 85
2020-03-27 06:00:00 -2.8 3 Nordeste 8 Nordeste 0 888.3 0.4 83
2020-03-27 05:00:00 -2.5 3 Nordeste 12 Nordeste 0 887.8 -0.1 79
2020-03-27 04:00:00 -2 6 Nordeste 13 Nordeste 0 887.8 -0.3 75
2020-03-27 03:00:00 -1.9 6 Este 11 Norte 0 887.9 0 72
2020-03-27 02:00:00 -0.9 6 Nordeste 17 Nordeste 0 887.9 0 66
2020-03-27 01:00:00 -0.4 9 Nordeste 22 Nordeste 0 888.1 0.6 67
2020-03-27 00:00:00 -0.1 9 Este 29 Este 0 887.9 0.5 71
2020-03-26 23:00:00 0.7 8 Nordeste 20 Nordeste 0 887.9 0.5 65
2020-03-26 22:00:00 1.1 4 Este 16 Nordeste 0 887.5 0.3 66
2020-03-26 21:00:00 2.4 11 Nordeste 19 Nordeste 0 887.4 0.9 60
2020-03-26 20:00:00 3.5 3 Norte 24 Nordeste 0 887.4 1.2 54
2020-03-26 19:00:00 5.9 6 Norte 25 Norte 0 887.2 1.2 44
2020-03-26 18:00:00 8.3 9 Norte 24 Norte 0 886.5 0.4 40
2020-03-26 17:00:00 9.5 9 Norte 23 Noroeste 0 886.2 0 38
2020-03-26 16:00:00 9.8 9 Norte 26 Noroeste 0 886 -1 37
2020-03-26 15:00:00 8.6 11 Norte 33 Norte 0 886.1 -0.9 45
2020-03-26 14:00:00 6.9 11 Norte 28 Norte 0 886.2 -0.8 52
2020-03-26 13:00:00 5.1 10 Norte 27 Noroeste 0 887 0 61
2020-03-26 12:00:00 5 9 Norte 32 Norte 0 887 0.4 51
2020-03-26 11:00:00 4.8 10 Norte 38 Norte 0 887 0.6 57
2020-03-26 10:00:00 4.6 10 Norte 33 Noroeste 0 887 0.2 57
2020-03-26 09:00:00 4.5 13 Norte 36 Norte 0 886.6 -0.1 58
2020-03-26 08:00:00 3.7 10 Norte 28 Norte 0 886.4 -0.7 67
2020-03-26 07:00:00 2.8 5 Sudoeste 17 Norte 0 886.8 -0.9 73
2020-03-26 06:00:00 1.3 5 Norte 13 Oeste 0 886.7 -1.6 74
2020-03-26 05:00:00 1.4 5 Oeste 16 Noroeste 0 887.1 -1.5 72
2020-03-26 04:00:00 0.8 3 Noroeste 14 Nordeste 0 887.7 -1.2 64
2020-03-26 03:00:00 1.6 7 Norte 22 Nordeste 0 888.3 -0.8 60
2020-03-26 02:00:00 1.6 5 Este 9 Este 0 888.6 -0.9 70
2020-03-26 01:00:00 2.5 4 Nordeste 9 Este 0 888.9 -0.9 72
2020-03-26 00:00:00 3.3 3 Este 9 Nordeste 0 889.1 -0.7 69
2020-03-25 23:00:00 4.5 3 Sudeste 17 Norte 0 889.5 0.3 61
2020-03-25 22:00:00 6.1 5 Norte 15 Norte 0 889.8 0.9 55
2020-03-25 21:00:00 7.5 6 Norte 15 Nordeste 0 889.8 0.7 52
2020-03-25 20:00:00 8.9 5 Norte 24 Nordeste 0 889.2 -0.2 53
2020-03-25 19:00:00 10.7 11 Norte 28 Nordeste 0 888.9 -0.7 41
2020-03-25 18:00:00 12.5 12 Norte 30 Nordeste 0 889.1 -0.8 31
2020-03-25 17:00:00 13.2 14 Nordeste 26 Este 0 889.4 -0.7 28
2020-03-25 16:00:00 13.9 13 Este 25 Este 0 889.6 -1.3 49
2020-03-25 15:00:00 14 13 Nordeste 25 Nordeste 0 889.9 -1.5 41
2020-03-25 14:00:00 14 8 Nordeste 17 Nordeste 0 890.1 -1.6 36
2020-03-25 13:00:00 12.4 6 Sudoeste 18 Nordeste 0 890.9 -1.1 50
2020-03-25 12:00:00 11.9 8 Nordeste 17 Nordeste 0 891.4 -0.4 48
2020-03-25 11:00:00 10.6 7 Este 14 Este 0 891.7 -0.1 60
2020-03-25 10:00:00 8.5 5 Este 10 Este 0 892 0.6 70
2020-03-25 09:00:00 4.9 4 Este 8 Este 0 891.8 0.3 89
2020-03-25 08:00:00 1 3 Nordeste 5 Nordeste 0 891.8 0.1 96
2020-03-25 07:00:00 0.8 3 Norte 9 Sudoeste 0 891.4 -0.8 94
2020-03-25 06:00:00 1.8 3 Norte 10 Noroeste 0 891.5 -1 93
2020-03-25 05:00:00 2.3 5 Norte 10 Nordeste 0 891.7 -1 94
2020-03-25 04:00:00 2.7 3 Oeste 12 Norte 0 892.2 -0.8 92
2020-03-25 03:00:00 3.2 4 Norte 9 Norte 0 892.5 -0.6 93
2020-03-25 02:00:00 3.9 4 Oeste 8 Oeste 0 892.7 -0.8 88
2020-03-25 01:00:00 4.4 3 Oeste 6 Oeste 0 893 -0.5 88
2020-03-25 00:00:00 4.6 0 Calma 5 Norte 0 893.1 -0.4 88
2020-03-24 23:00:00 4.9 0 Calma 4 Norte 0 893.5 0.2 86
2020-03-24 22:00:00 6.1 0 Calma 6 Sur 0 893.5 0.3 81
2020-03-24 21:00:00 6.2 4 Sur 9 Sur 0 893.5 0.3 80
2020-03-24 20:00:00 7.2 8 Sur 12 Sur 0 893.3 0 77
2020-03-24 19:00:00 9.2 5 Este 14 Sudeste 0 893.2 -0.4 66
2020-03-24 18:00:00 9.7 6 Sudeste 16 Sudeste 0 893.2 -0.5 67
2020-03-24 17:00:00 8.9 9 Sudeste 17 Sudeste 0 893.3 -0.8 72
2020-03-24 16:00:00 8.8 12 Sudeste 21 Sudeste 0 893.6 -1.1 76
2020-03-24 15:00:00 9.8 6 Este 17 Sudeste 0 893.7 -1.4 69
2020-03-24 14:00:00 9.5 5 Sudeste 15 Sudeste 0 894.1 -1 71
2020-03-24 13:00:00 9.2 8 Sudeste 18 Sudeste 0 894.7 -0.5 74
2020-03-24 12:00:00 8.3 10 Sudeste 21 Sudeste 0 895.1 0.2 77
2020-03-24 11:00:00 8.6 11 Sudeste 25 Este 0 895.1 0.1 74
2020-03-24 10:00:00 8.7 10 Este 26 Este 0 895.2 0.6 70
2020-03-24 09:00:00 6.8 9 Nordeste 21 Este 0 894.9 0.3 85
2020-03-24 08:00:00 5.3 8 Este 19 Este 0 895 0.6 90
2020-03-24 07:00:00 5.7 9 Este 17 Este 0 894.6 0.1 90
2020-03-24 06:00:00 4.9 5 Este 17 Este 0 894.6 0 92
2020-03-24 05:00:00 6 8 Este 20 Este 0 894.4 -0.2 90
2020-03-24 04:00:00 6.5 9 Este 17 Este 0 894.5 -0.4 91
2020-03-24 03:00:00 6.6 6 Este 14 Este 0 894.6 -0.2 93
2020-03-24 02:00:00 6.9 8 Este 19 Este 0 894.6 -0.2 91
2020-03-24 01:00:00 7 8 Este 21 Sudeste 0 894.9 0.5 89
2020-03-24 00:00:00 7.2 10 Este 20 Este 0 894.8 0.5 89
2020-03-23 23:00:00 6.8 6 Este 12 Nordeste 0 894.8 0.9 92
2020-03-23 22:00:00 7.2 4 Nordeste 14 Este 0 894.4 1 88
2020-03-23 21:00:00 7.8 8 Este 17 Este 0 894.3 1.1 85
2020-03-23 20:00:00 8.2 9 Este 20 Este 0 893.9 0.9 82
2020-03-23 19:00:00 9.5 12 Este 26 Este 0 893.4 0.4 70
2020-03-23 18:00:00 10 10 Este 24 Sudeste 0 893.2 -0.1 72
2020-03-23 17:00:00 9.7 11 Este 23 Este 0 893 -0.6 72
2020-03-23 16:00:00 9.6 10 Este 28 Este 0 893 -0.8 76
2020-03-23 15:00:00 9.9 15 Este 25 Este 0.4 893.3 -0.8 77
2020-03-23 14:00:00 10.3 12 Este 27 Este 0 893.6 -0.3 69
2020-03-23 13:00:00 10.8 9 Este 28 Este 0 893.8 0.1 69
2020-03-23 12:00:00 8.8 10 Este 22 Este 0 894.1 0.8 77
2020-03-23 11:00:00 9.1 12 Este 25 Este 0 893.9 1 77
2020-03-23 10:00:00 9.7 11 Este 23 Este 0 893.7 1.3 71
2020-03-23 09:00:00 7.4 10 Este 18 Este 0 893.3 1.2 84
2020-03-23 08:00:00 6.2 6 Nordeste 14 Este 0 892.9 1.2 93
2020-03-23 07:00:00 5.7 7 Nordeste 17 Nordeste 0 892.4 0.7 93
2020-03-23 06:00:00 5.4 7 Este 15 Nordeste 0 892.1 0.4 92
2020-03-23 05:00:00 5.2 7 Norte 18 Nordeste 0 891.7 0 92
2020-03-23 04:00:00 5.4 8 Nordeste 17 Nordeste 0 891.7 -0.1 89
2020-03-23 03:00:00 5.7 7 Nordeste 17 Este 0 891.7 -0.3 87
2020-03-23 02:00:00 5.2 4 Este 12 Nordeste 0 891.7 -0.3 90
2020-03-23 01:00:00 6 5 Nordeste 13 Nordeste 0 891.8 0.2 86
2020-03-23 00:00:00 5.7 4 Este 6 Este 0 892 1 85
2020-03-22 23:00:00 4.7 0 Calma 5 Norte 0 892 1.7 84
2020-03-22 22:00:00 5.4 3 Sudeste 12 Nordeste 0 891.6 1.8 79
2020-03-22 21:00:00 6.6 5 Nordeste 10 Nordeste 0 891 1.8 73
2020-03-22 20:00:00 7.8 5 Este 18 Este 0 890.3 1.3 69
2020-03-22 19:00:00 9.9 11 Este 23 Este 0 889.8 1.1 60
2020-03-22 18:00:00 12.1 13 Este 25 Este 0 889.2 0.3 51
2020-03-22 17:00:00 12.7 17 Este 28 Este 0 889 -0.2 53
2020-03-22 16:00:00 12.8 14 Este 30 Nordeste 0 888.7 -0.6 51
2020-03-22 15:00:00 11.9 16 Nordeste 29 Nordeste 0 888.9 -0.6 56
2020-03-22 14:00:00 12.1 11 Este 25 Este 0 889.2 -0.2 56
2020-03-22 13:00:00 11.4 6 Este 22 Este 0 889.3 0.1 59
2020-03-22 12:00:00 10.7 6 Sudeste 17 Este 0 889.5 0.6 67
2020-03-22 11:00:00 11.1 8 Este 20 Este 0 889.4 0.7 66
2020-03-22 10:00:00 10.1 7 Sudeste 12 Este 0 889.2 0.9 70
2020-03-22 09:00:00 7.3 5 Nordeste 11 Nordeste 0 888.9 0.8 89
2020-03-22 08:00:00 6.3 6 Nordeste 12 Nordeste 0 888.7 0.8 93
2020-03-22 07:00:00 6.3 4 Nordeste 13 Este 0 888.3 0.3 92
2020-03-22 06:00:00 6.4 4 Nordeste 11 Nordeste 0 888.1 -0.3 93
2020-03-22 05:00:00 6.1 3 Nordeste 5 Este 0 887.9 -0.7 96
2020-03-22 04:00:00 6 0 Calma 5 Nordeste 0 888 -0.8 95
2020-03-22 03:00:00 6.1 0 Calma 8 Sudoeste 0 888.4 -0.6 95
2020-03-22 02:00:00 5.8 4 Oeste 9 Sudoeste 0 888.6 -0.4 94
2020-03-22 01:00:00 6.7 3 Sudoeste 8 Sudoeste 0 888.8 0 92
2020-03-22 00:00:00 7.2 3 Sur 6 Sur 0 889 0.5 89
2020-03-21 23:00:00 7.7 2 Sudoeste 12 Sur 0 889 0.7 87
2020-03-21 22:00:00 8.1 7 Sur 12 Sur 0 888.8 0.7 85
2020-03-21 21:00:00 8.2 4 Sudeste 12 Sur 0 888.5 0.7 83
2020-03-21 20:00:00 8.5 6 Sur 13 Sur 0 888.3 0.5 82
2020-03-21 19:00:00 8.9 7 Sur 14 Sur 0 888.1 0 77
2020-03-21 18:00:00 9.7 7 Sur 13 Sur 0 887.8 -0.7 70
2020-03-21 17:00:00 10.1 8 Sur 14 Sur 0 887.8 -1.2 69
2020-03-21 16:00:00 10.2 9 Sudeste 17 Sudeste 0 888.1 -1.5 68
2020-03-21 15:00:00 10.4 9 Sur 16 Sudeste 0 888.5 -1.5 68
2020-03-21 14:00:00 9.9 6 Sur 17 Sudeste 0 889 -1.1 70
2020-03-21 13:00:00 8.7 7 Sudeste 20 Sur 0 889.6 -0.4 74
2020-03-21 12:00:00 8.1 11 Sur 18 Sudeste 0 890 0 79
2020-03-21 11:00:00 7.9 8 Sudeste 16 Sudeste 0 890.1 0.2 83
2020-03-21 10:00:00 7.4 7 Sudeste 18 Sudeste 0 890 0 84
2020-03-21 09:00:00 6.2 4 Sudeste 9 Nordeste 0 890 -0.2 88
2020-03-21 08:00:00 5.4 5 Este 8 Nordeste 0 889.9 -0.6 87
2020-03-21 07:00:00 4.7 0 Calma 5 Este 0 890 -0.8 86
2020-03-21 06:00:00 4.4 3 Este 6 Nordeste 0 890.2 -1 84
2020-03-21 05:00:00 4.3 2 Norte 12 Este 0 890.5 -1.2 84
2020-03-21 04:00:00 4.8 7 Este 19 Sudeste 0 890.8 -1.3 82
2020-03-21 03:00:00 5.6 8 Sudeste 22 Este 0 891.2 -1.2 80
2020-03-21 02:00:00 7 9 Sudeste 20 Este 0 891.7 -0.9 81
2020-03-21 01:00:00 7 9 Sudeste 23 Sudeste 0 892.1 -0.5 86
2020-03-21 00:00:00 7 9 Este 20 Sudeste 0 892.4 -0.1 88
2020-03-20 23:00:00 7.6 7 Este 19 Sudeste 0 892.6 0.2 89
2020-03-20 22:00:00 8.1 9 Sudeste 20 Sudeste 0 892.6 0.3 89
2020-03-20 21:00:00 8.4 6 Este 20 Sudeste 0 892.5 0.2 86
2020-03-20 20:00:00 9.3 7 Sudeste 17 Sudeste 0 892.4 -0.1 81
2020-03-20 19:00:00 10.2 7 Este 15 Este 0 892.3 -0.5 74
2020-03-20 18:00:00 10.9 8 Sudeste 17 Sudeste 0 892.3 -0.8 70
2020-03-20 17:00:00 10.7 10 Sudeste 19 Sudeste 0 892.5 -0.6 74
2020-03-20 16:00:00 10.3 12 Sur 21 Sudeste 0 892.8 -0.7 73
2020-03-20 15:00:00 10.4 10 Sur 21 Sur 0 893.1 -0.7 74
2020-03-20 14:00:00 10.6 6 Sur 18 Sudoeste 0 893.1 -1.1 72
2020-03-20 13:00:00 9.9 10 Sur 20 Sudeste 0 893.5 -0.8 73
2020-03-20 12:00:00 9.9 9 Sudeste 21 Sudeste 0 893.8 -0.2 77
2020-03-20 11:00:00 7.8 9 Sudeste 17 Este 0 894.2 0.5 83
2020-03-20 10:00:00 6.8 8 Este 16 Este 0 894.3 0.8 84
2020-03-20 09:00:00 5.1 5 Este 11 Este 0 894 0.5 83
2020-03-20 08:00:00 4.2 5 Nordeste 10 Nordeste 0 893.7 0.1 79
2020-03-20 07:00:00 3.5 5 Nordeste 8 Nordeste 0 893.5 -0.5 81
2020-03-20 06:00:00 3.1 3 Nordeste 12 Este 0 893.5 -0.7 89
2020-03-20 05:00:00 3.5 3 Este 8 Nordeste 0 893.6 -0.9 88
2020-03-20 04:00:00 4.3 2 Norte 7 Norte 0 894 -0.6 86
2020-03-20 03:00:00 5.1 3 Este 12 Este 0 894.2 -0.8 82
2020-03-20 02:00:00 5.2 3 Este 10 Nordeste 0 894.5 -0.6 84
2020-03-20 01:00:00 6.3 7 Este 13 Este 0 894.6 -0.7 78
2020-03-20 00:00:00 6.9 9 Este 16 Este 0 895 -0.2 77
2020-03-19 23:00:00 7.3 12 Este 22 Este 0 895.1 -0.1 79
2020-03-19 22:00:00 7.1 8 Este 20 Sudeste 0 895.3 0.4 81
2020-03-19 21:00:00 7.6 9 Este 19 Este 0 895.2 0.3 72
2020-03-19 20:00:00 9.1 8 Este 16 Este 0 895.2 -0.1 67
2020-03-19 19:00:00 11.3 4 Este 17 Este 0 894.9 -0.9 55
2020-03-19 18:00:00 13 9 Este 17 Este 0 894.9 -1.5 46
2020-03-19 17:00:00 13.4 7 Sudeste 18 Sudeste 0 895.3 -1.8 41
2020-03-19 16:00:00 13.7 9 Sudeste 23 Este 0 895.8 -1.9 45
2020-03-19 15:00:00 14.2 10 Sudeste 24 Sudeste 0 896.4 -1.9 47
2020-03-19 14:00:00 13.2 9 Este 24 Este 0 897.1 -1.7 45
2020-03-19 13:00:00 13.6 13 Sudeste 28 Sudeste 0 897.7 -1.1 47
2020-03-19 12:00:00 13.1 10 Sudeste 24 Este 0 898.3 -0.3 52
2020-03-19 11:00:00 10.6 8 Nordeste 13 Nordeste 0 898.8 0.4 62
2020-03-19 10:00:00 8 5 Nordeste 11 Norte 0 898.8 0.4 74
2020-03-19 09:00:00 5.1 4 Nordeste 10 Nordeste 0 898.6 0.1 86
2020-03-19 08:00:00 3.7 0 Calma 8 Nordeste 0 898.4 -0.3 93
2020-03-19 07:00:00 3.8 0 Calma 9 Nordeste 0 898.4 -0.6 94
2020-03-19 06:00:00 3.9 3 Nordeste 12 Nordeste 0 898.5 -1.1 94
2020-03-19 05:00:00 4.3 2 Sudeste 5 Nordeste 0 898.7 -1.4 94
2020-03-19 04:00:00 5.2 3 Nordeste 8 Norte 0 899 -1.3 94
2020-03-19 03:00:00 5.7 4 Nordeste 9 Nordeste 0 899.6 -1.1 96
2020-03-19 02:00:00 6.3 4 Nordeste 7 Nordeste 0 900.1 -0.7 96
2020-03-19 01:00:00 7.1 2 Norte 6 Nordeste 0 900.3 -0.7 92
2020-03-19 00:00:00 7.6 2 Este 5 Nordeste 0 900.7 -0.3 92
2020-03-18 23:00:00 8.4 3 Nordeste 6 Nordeste 0 900.8 -0.1 90
2020-03-18 22:00:00 9.4 3 Nordeste 6 Este 0 901 0.3 88
2020-03-18 21:00:00 10.3 2 Este 8 Nordeste 0 901 0.4 81
2020-03-18 20:00:00 11.3 2 Este 9 Este 0 900.9 0.3 75
2020-03-18 19:00:00 12.5 4 Sur 17 Sudeste 0 900.7 -0.4 74
2020-03-18 18:00:00 14.4 8 Sudeste 17 Sudeste 0 900.6 -0.9 65
2020-03-18 17:00:00 15.1 5 Este 14 Este 0 900.6 -1.4 56
2020-03-18 16:00:00 14.7 7 Sudeste 14 Este 0 901.1 -1.5 56
2020-03-18 15:00:00 14.7 6 Este 14 Este 0 901.5 -1.7 54
2020-03-18 14:00:00 14.7 8 Sudeste 19 Este 0 902 -1.4 54
2020-03-18 13:00:00 14.1 9 Este 18 Sudeste 0 902.6 -1 50
2020-03-18 12:00:00 14 9 Este 17 Sudeste 0 903.2 -0.2 49
2020-03-18 11:00:00 12 5 Este 12 Este 0 903.4 0 62
2020-03-18 10:00:00 9.6 7 Nordeste 11 Nordeste 0 903.6 0.4 76
2020-03-18 09:00:00 5.3 2 Nordeste 4 Nordeste 0 903.4 0.3 95
2020-03-18 08:00:00 4.1 0 Calma 8 Nordeste 0 903.4 0.3 95
2020-03-18 07:00:00 4 3 Nordeste 8 Nordeste 0 903.2 0 95
2020-03-18 06:00:00 4 2 Nordeste 6 Nordeste 0 903.1 -0.5 97
2020-03-18 05:00:00 4.1 3 Sudeste 8 Este 0 903.1 -0.9 95
2020-03-18 04:00:00 4.8 3 Este 15 Nordeste 0 903.2 -1 94
2020-03-18 03:00:00 5.4 5 Nordeste 13 Nordeste 0 903.6 -1 94
2020-03-18 02:00:00 6.1 5 Nordeste 12 Este 0 904 -0.8 95
2020-03-18 01:00:00 5.9 7 Este 13 Este 0 904.2 -0.5 96
2020-03-18 00:00:00 6.2 5 Nordeste 10 Norte 0 904.6 0.1 96
2020-03-17 23:00:00 6.8 6 Nordeste 14 Nordeste 0 904.8 0.9 95
2020-03-17 22:00:00 7.8 8 Nordeste 13 Este 0 904.7 1.2 92
2020-03-17 21:00:00 8.1 7 Este 15 Nordeste 0 904.5 1.5 95
2020-03-17 20:00:00 8.5 6 Este 16 Este 0 903.9 1.1 95
2020-03-17 19:00:00 8.4 9 Este 20 Sudeste 0 903.5 0.8 96
2020-03-17 18:00:00 8.1 10 Nordeste 17 Nordeste 0 903 0.5 96
2020-03-17 17:00:00 8.9 9 Este 18 Sudeste 0 902.8 0.1 93
2020-03-17 16:00:00 9.7 9 Sudeste 22 Este 0 902.7 0.2 88
2020-03-17 15:00:00 9.1 10 Este 22 Este 0 902.5 0.3 92
2020-03-17 14:00:00 8.6 13 Este 23 Nordeste 0 902.7 0.7 94
2020-03-17 13:00:00 8.6 12 Este 30 Sudeste 0 902.5 1.1 91
2020-03-17 12:00:00 7.6 12 Nordeste 22 Nordeste 0 902.2 1.3 94
2020-03-17 11:00:00 6.8 13 Nordeste 25 Nordeste 0.2 902 2 96
2020-03-17 10:00:00 6.5 13 Nordeste 25 Este 0 901.4 1.9 96
2020-03-17 09:00:00 6 14 Nordeste 28 Nordeste 0.2 900.9 2 95
2020-03-17 08:00:00 6 14 Nordeste 27 Nordeste 0 900 2.1 94
2020-03-17 07:00:00 5.8 10 Nordeste 27 Nordeste 0 899.5 1.9 93
2020-03-17 06:00:00 5.6 13 Nordeste 27 Nordeste 0 898.9 1.2 91
2020-03-17 05:00:00 5.6 15 Nordeste 27 Nordeste 0 897.9 0.5 90
2020-03-17 04:00:00 5.5 13 Nordeste 24 Nordeste 0 897.6 0.6 90
2020-03-17 03:00:00 5.4 10 Nordeste 31 Nordeste 0 897.7 0.7 90
2020-03-17 02:00:00 5.5 12 Nordeste 34 Nordeste 0 897.4 1 90
2020-03-17 01:00:00 5.2 13 Nordeste 36 Nordeste 0 897 1.5 88
2020-03-17 00:00:00 5.1 22 Nordeste 43 Nordeste 0 897 2.5 84
2020-03-16 23:00:00 4.9 17 Nordeste 46 Nordeste 0 896.4 2.7 85
2020-03-16 22:00:00 4.8 16 Nordeste 34 Nordeste 0 895.5 2.8 87
2020-03-16 21:00:00 4.8 20 Nordeste 46 Nordeste 0 894.5 2.8 87
2020-03-16 20:00:00 4.3 17 Nordeste 33 Nordeste 0.4 893.7 2.6 90
2020-03-16 19:00:00 4.4 22 Nordeste 39 Nordeste 0 892.7 1.8 89
2020-03-16 18:00:00 4.3 21 Nordeste 44 Norte 0 891.7 0.7 87
2020-03-16 17:00:00 4 27 Nordeste 47 Nordeste 0 891.1 -0.1 87
2020-03-16 16:00:00 3.6 22 Nordeste 45 Nordeste 0 890.9 -0.3 88
2020-03-16 15:00:00 3 13 Nordeste 35 Nordeste 0.8 891 0.3 92
2020-03-16 14:00:00 2.2 17 Norte 33 Nordeste 1.4 891.2 0.9 93
2020-03-16 13:00:00 2.1 15 Nordeste 32 Nordeste 0.8 891.2 2 93
2020-03-16 12:00:00 1.4 21 Nordeste 35 Este 3.2 890.7 2.1 96
2020-03-16 11:00:00 1.2 13 Nordeste 33 Nordeste 1.4 890.3 1.7 95
2020-03-16 10:00:00 1.2 15 Nordeste 34 Norte 0.8 889.2 1.3 95
2020-03-16 09:00:00 0.8 13 Norte 24 Norte 2.4 888.6 1.2 98
2020-03-16 08:00:00 0.9 13 Norte 34 Nordeste 2.8 888.6 1.7 97
2020-03-16 07:00:00 1 15 Nordeste 23 Nordeste 4.4 887.9 1.5 99
2020-03-16 06:00:00 0.9 9 Norte 29 Nordeste 2 887.4 0.6 98
2020-03-16 05:00:00 1.7 16 Nordeste 32 Norte 4.6 886.9 -0.1 95
2020-03-16 04:00:00 5.3 14 Nordeste 24 Nordeste 0.6 886.4 -0.9 91
2020-03-16 03:00:00 6.7 7 Sudeste 17 Sur 1.4 886.8 -1.1 95
2020-03-16 02:00:00 7 14 Sur 24 Sudeste 1.8 887 -1.3 95
2020-03-16 01:00:00 7.1 6 Sur 19 Sur 0.4 887.3 -2.1 94
2020-03-16 00:00:00 7.2 8 Sudeste 13 Sudeste 1 887.9 0.2 93
2020-03-15 23:00:00 7.2 8 Sur 28 Sur 1.8 888.3 0.7 93
2020-03-15 22:00:00 7.8 15 Sur 30 Sur 4.2 889.4 1.6 93
2020-03-15 21:00:00 8.6 4 Sudeste 13 Oeste 1.8 887.7 1 90
2020-03-15 20:00:00 9.1 5 Sur 32 Oeste 2.8 887.6 0.3 85
2020-03-15 19:00:00 13.5 21 Oeste 41 Oeste 0 887.8 -0.1 63
2020-03-15 18:00:00 15.7 18 Sudoeste 37 Sur 0 886.7 -1.9 44
2020-03-15 17:00:00 17.7 18 Sudoeste 34 Sur 0 887.3 -2.5 41
2020-03-15 16:00:00 17.2 10 Sudoeste 31 Sur 0 887.9 -3 46
2020-03-15 15:00:00 16.6 14 Sur 35 Sudoeste 0 888.6 -3.2 49
2020-03-15 14:00:00 17.6 17 Sur 31 Sur 0 889.8 -2.8 50
2020-03-15 13:00:00 16.2 15 Sudoeste 29 Sur 0 890.9 -2.3 53
2020-03-15 12:00:00 16.3 12 Sur 24 Sur 0 891.8 -1.6 59
2020-03-15 11:00:00 13.2 5 Sudoeste 12 Sur 0 892.6 -0.7 59
2020-03-15 10:00:00 9.7 2 Norte 6 Sudeste 0 893.2 -0.1 58
2020-03-15 09:00:00 4.3 0 Calma 4 Norte 0 893.4 -0.1 75
2020-03-15 08:00:00 0.8 0 Calma 3 Este 0 893.3 -0.5 84
2020-03-15 07:00:00 0.8 0 Calma 4 Norte 0 893.3 -1 83
2020-03-15 06:00:00 1 0 Calma 4 Este 0 893.5 -1.6 81
2020-03-15 05:00:00 1.5 0 Calma 5 Este 0 893.8 -1.7 80
2020-03-15 04:00:00 1.6 2 Sudeste 4 Sudeste 0 894.3 -1.6 80
2020-03-15 03:00:00 2.2 0 Calma 5 Sudeste 0 895.1 -1.1 77
2020-03-15 02:00:00 3.1 0 Calma 4 Este 0 895.5 -0.8 72
2020-03-15 01:00:00 4.3 0 Calma 5 Nordeste 0 895.9 -0.3 67
2020-03-15 00:00:00 5.1 0 Calma 4 Nordeste 0 896.2 -0.2 63
2020-03-14 23:00:00 7.1 3 Norte 6 Norte 0 896.3 0.2 55
2020-03-14 22:00:00 8.5 0 Calma 4 Nordeste 0 896.2 0.4 50
2020-03-14 21:00:00 9.4 0 Calma 8 Nordeste 0 896.4 1 48
2020-03-14 20:00:00 11.2 4 Nordeste 13 Este 0 896.1 0.7 43
2020-03-14 19:00:00 14.1 8 Nordeste 19 Nordeste 0 895.8 0 37
2020-03-14 18:00:00 18.3 7 Este 12 Sur 0 895.4 -0.8 28
2020-03-14 17:00:00 18.9 7 Sur 12 Sur 0 895.4 -1.4 27
2020-03-14 16:00:00 18.7 7 Sur 14 Este 0 895.8 -1.5 25
2020-03-14 15:00:00 18.6 5 Norte 12 Norte 0 896.2 -1.5 22
2020-03-14 14:00:00 18 5 Norte 11 Nordeste 0 896.8 -1.2 20
2020-03-14 13:00:00 16.7 5 Sur 14 Sudeste 0 897.3 -0.7 24
2020-03-14 12:00:00 14.6 5 Este 9 Nordeste 0 897.7 0 33
2020-03-14 11:00:00 11.9 3 Sur 9 Oeste 0 898 0.8 63
2020-03-14 10:00:00 8 3 Norte 8 Norte 0 898 1.2 81
2020-03-14 09:00:00 1.7 0 Calma 7 Este 0 897.7 1.2 100
2020-03-14 08:00:00 0.9 3 Norte 8 Norte 0 897.2 0.9 98
2020-03-14 07:00:00 1 0 Calma 5 Sudeste 0 896.8 0.5 93
2020-03-14 06:00:00 2.5 0 Calma 5 Oeste 0 896.5 -0.2 94
2020-03-14 05:00:00 3.2 2 Oeste 10 Nordeste 0 896.3 -0.7 95
2020-03-14 04:00:00 3.7 2 Este 9 Norte 0 896.3 -0.7 95
2020-03-14 03:00:00 3.6 0 Calma 5 Noroeste 0 896.7 -0.4 93
2020-03-14 02:00:00 4.8 3 Norte 5 Noroeste 0 897 0.1 91
2020-03-14 01:00:00 4.9 0 Calma 6 Nordeste 0 897 0.4 90
2020-03-14 00:00:00 5.8 2 Nordeste 6 Norte 0 897.1 0.9 88
2020-03-13 23:00:00 6.5 2 Norte 5 Norte 0 896.9 1 84
2020-03-13 22:00:00 7.3 2 Norte 7 Este 0 896.6 1.2 81
2020-03-13 21:00:00 7.9 3 Este 11 Nordeste 0 896.2 1.3 80
2020-03-13 20:00:00 9 7 Este 19 Nordeste 0 895.9 1 75
2020-03-13 19:00:00 11.1 12 Nordeste 24 Este 0 895.4 0.3 67
2020-03-13 18:00:00 13.9 12 Nordeste 23 Nordeste 0 894.9 -0.3 59
2020-03-13 17:00:00 14.7 12 Nordeste 25 Nordeste 0 894.9 -0.9 55
2020-03-13 16:00:00 15.4 13 Nordeste 23 Este 0 895.1 -1.4 53
2020-03-13 15:00:00 16.9 9 Este 21 Este 0 895.2 -1.4 50
2020-03-13 14:00:00 15.9 10 Nordeste 24 Este 0 895.8 -0.8 53
2020-03-13 13:00:00 15 11 Nordeste 26 Este 0 896.5 -0.2 56
2020-03-13 12:00:00 13 14 Nordeste 25 Este 0 896.6 -0.1 61
2020-03-13 11:00:00 12.8 13 Este 23 Nordeste 0 896.6 0.1 61
2020-03-13 10:00:00 11.3 10 Nordeste 19 Nordeste 0 896.7 0.6 69
2020-03-13 09:00:00 8.3 8 Nordeste 21 Nordeste 0 896.7 0.6 79
2020-03-13 08:00:00 7.1 10 Nordeste 28 Nordeste 0 896.5 0.6 83
2020-03-13 07:00:00 7.5 10 Nordeste 28 Nordeste 0 896.1 0.4 85
2020-03-13 06:00:00 7.8 10 Nordeste 22 Nordeste 0 896.1 -0.3 84
2020-03-13 05:00:00 8 10 Nordeste 18 Este 0 895.9 -0.8 86
2020-03-13 04:00:00 8.1 10 Nordeste 18 Nordeste 0 895.7 -1.2 86
2020-03-13 03:00:00 8.1 9 Nordeste 17 Nordeste 0 896.4 -0.3 88
2020-03-13 02:00:00 8.1 9 Nordeste 16 Este 0 896.7 0 89
2020-03-13 01:00:00 8.9 11 Nordeste 24 Este 0 896.9 0.5 88
2020-03-13 00:00:00 9.4 10 Nordeste 20 Este 0 896.7 0.8 87
2020-03-12 23:00:00 9.5 12 Este 22 Este 0 896.7 1 87
2020-03-12 22:00:00 10.2 9 Nordeste 20 Nordeste 0 896.4 1.2 85
2020-03-12 21:00:00 11.4 8 Nordeste 22 Nordeste 0 895.9 1.3 80
2020-03-12 20:00:00 13.1 13 Nordeste 24 Nordeste 0 895.7 1 73
2020-03-12 19:00:00 15.2 13 Nordeste 28 Nordeste 0 895.2 0.1 64
2020-03-12 18:00:00 21.9 5 Sur 15 Sudoeste 0 894.6 -1 35
2020-03-12 17:00:00 23.1 9 Sudoeste 23 Oeste 0 894.7 -1.8 31
2020-03-12 16:00:00 23.9 11 Oeste 25 Oeste 0 895.1 -2.5 29
2020-03-12 15:00:00 24.4 14 Sudoeste 27 Sudoeste 0 895.6 -2.6 30
2020-03-12 14:00:00 24.3 11 Sudoeste 35 Sudoeste 0 896.5 -2 32
2020-03-12 13:00:00 23.1 12 Sudoeste 21 Sudoeste 0 897.6 -1 37
2020-03-12 12:00:00 20.9 7 Sudoeste 14 Sur 0 898.2 -0.5 46
2020-03-12 11:00:00 17.2 5 Sudeste 9 Este 0 898.5 0 54
2020-03-12 10:00:00 12.7 3 Sudeste 6 Sudeste 0 898.6 0.2 67
2020-03-12 09:00:00 7.9 2 Sudeste 4 Nordeste 0 898.7 0.4 84
2020-03-12 08:00:00 5.9 0 Calma 3 Noroeste 0 898.5 -0.1 84
2020-03-12 07:00:00 5.8 0 Calma 5 Norte 0 898.4 -0.5 84
2020-03-12 06:00:00 6 0 Calma 4 Este 0 898.3 -1.1 82
2020-03-12 05:00:00 7.5 0 Calma 6 Norte 0 898.6 -1.2 76
2020-03-12 04:00:00 8.1 0 Calma 5 Norte 0 898.9 -1.1 74
2020-03-12 03:00:00 8.8 2 Norte 4 Noroeste 0 899.4 -0.9 71
2020-03-12 02:00:00 9.8 2 Este 5 Noroeste 0 899.8 -0.5 70
2020-03-12 01:00:00 11.1 2 Noroeste 5 Noroeste 0 900 -0.3 63
2020-03-12 00:00:00 12.5 0 Calma 4 Sudoeste 0 900.3 0.1 58
2020-03-11 23:00:00 13.1 3 Sudoeste 5 Este 0 900.3 0.1 57
2020-03-11 22:00:00 14.3 3 Norte 5 Oeste 0 900.3 0.3 52
2020-03-11 21:00:00 15.8 2 Norte 7 Oeste 0 900.2 0.6 46
2020-03-11 20:00:00 17.3 4 Oeste 10 Oeste 0 900.2 0.8 41
2020-03-11 19:00:00 19.7 9 Oeste 24 Oeste 0 900 0.4 33
2020-03-11 18:00:00 22.4 13 Oeste 30 Oeste 0 899.6 -0.4 27
2020-03-11 17:00:00 23.5 15 Oeste 28 Oeste 0 899.4 -1.2 25
2020-03-11 16:00:00 23.3 13 Oeste 29 Oeste 0 899.6 -1.7 24
2020-03-11 15:00:00 22.7 14 Oeste 28 Oeste 0 900 -1.7 21
2020-03-11 14:00:00 22.1 13 Oeste 26 Sudoeste 0 900.6 -1.4 23
2020-03-11 13:00:00 20.6 14 Oeste 25 Oeste 0 901.3 -0.7 28
2020-03-11 12:00:00 19.3 12 Oeste 22 Sudoeste 0 901.7 -0.1 26
2020-03-11 11:00:00 16 3 Sudoeste 8 Nordeste 0 902 0.5 47
2020-03-11 10:00:00 12.1 2 Este 5 Este 0 902 0.8 59
2020-03-11 09:00:00 6 0 Calma 4 Sudeste 0 901.8 0.9 91
2020-03-11 08:00:00 4.2 0 Calma 4 Este 0 901.5 0.6 86
2020-03-11 07:00:00 4.3 0 Calma 5 Nordeste 0 901.2 0.3 88
2020-03-11 06:00:00 4.8 0 Calma 6 Sudeste 0 900.9 -0.8 85
2020-03-11 05:00:00 7.6 3 Oeste 9 Oeste 0 900.9 -1.2 71
2020-03-11 04:00:00 7.2 4 Norte 8 Norte 0 900.9 -1.4 82
2020-03-11 03:00:00 6.3 3 Sudeste 7 Norte 0 901.7 -0.6 81
2020-03-11 02:00:00 7.6 3 Oeste 7 Oeste 0 902.1 -0.3 81
2020-03-11 01:00:00 9.1 0 Calma 9 Noroeste 0 902.3 0.2 73
2020-03-11 00:00:00 12.7 6 Oeste 17 Oeste 0 902.3 0.3 62
2020-03-10 23:00:00 12.9 10 Oeste 18 Noroeste 0 902.4 0.5 61
2020-03-10 22:00:00 12.8 6 Noroeste 19 Oeste 0 902.1 0.7 63
2020-03-10 21:00:00 13.9 12 Oeste 22 Oeste 0 902 0.8 58
2020-03-10 20:00:00 14.2 7 Oeste 17 Oeste 0 901.9 0.8 56
2020-03-10 19:00:00 16.3 13 Oeste 29 Oeste 0 901.4 0.2 49
2020-03-10 18:00:00 17 16 Oeste 31 Oeste 0 901.2 -0.3 46
2020-03-10 17:00:00 18 18 Oeste 31 Oeste 0 901.1 -0.7 45
2020-03-10 16:00:00 18.9 17 Oeste 34 Oeste 0 901.2 -1.1 42
2020-03-10 15:00:00 19 12 Sudoeste 24 Sudoeste 0 901.5 -1.3 44
2020-03-10 14:00:00 20.1 8 Norte 18 Noroeste 0 901.8 -1.1 38
2020-03-10 13:00:00 18.4 8 Norte 18 Norte 0 902.3 -0.4 39
2020-03-10 12:00:00 15.7 8 Oeste 18 Sudoeste 0 902.8 0.3 44
2020-03-10 11:00:00 13.5 9 Oeste 18 Noroeste 0 902.9 1 49
2020-03-10 10:00:00 11.6 9 Noroeste 23 Noroeste 0 902.7 1.2 45
2020-03-10 09:00:00 8.1 9 Noroeste 22 Oeste 0 902.5 1.1 58
2020-03-10 08:00:00 6.5 4 Sudoeste 21 Oeste 0 901.9 0.7 65
2020-03-10 07:00:00 7 10 Noroeste 27 Noroeste 0 901.5 0.3 61
2020-03-10 06:00:00 7 8 Noroeste 19 Norte 0 901.4 0 61
2020-03-10 05:00:00 5.8 7 Noroeste 15 Noroeste 0 901.2 -0.3 59
2020-03-10 04:00:00 5.5 8 Oeste 15 Noroeste 0 901.2 -0.5 56
2020-03-10 03:00:00 5.4 6 Norte 14 Noroeste 0 901.4 -0.2 60
2020-03-10 02:00:00 5.9 2 Sudoeste 14 Norte 0 901.5 -0.4 63
2020-03-10 01:00:00 6.8 8 Norte 15 Noroeste 0 901.7 -0.2 55
2020-03-10 00:00:00 5.9 3 Norte 13 Noroeste 0 901.6 -0.5 64
2020-03-09 23:00:00 5.7 4 Norte 13 Noroeste 0 901.9 0.3 63
2020-03-09 22:00:00 5.3 2 Este 6 Este 0 901.9 0.8 63
2020-03-09 21:00:00 6.4 4 Nordeste 13 Nordeste 0 902.1 1.8 55
2020-03-09 20:00:00 7.6 6 Norte 13 Noroeste 0 901.6 1.5 48
2020-03-09 19:00:00 9.3 7 Norte 25 Nordeste 0 901.1 0.9 39
2020-03-09 18:00:00 12 10 Norte 24 Norte 0 900.3 0 34
2020-03-09 17:00:00 11.5 8 Norte 26 Nordeste 0 900.1 -0.5 42
2020-03-09 16:00:00 13 6 Norte 19 Norte 0 900.2 -1.1 39
2020-03-09 15:00:00 13.1 7 Norte 28 Noroeste 0 900.3 -1.3 37
2020-03-09 14:00:00 14.1 9 Norte 29 Nordeste 0 900.6 -1.2 32
2020-03-09 13:00:00 14 8 Noroeste 20 Norte 0 901.3 -0.1 34
2020-03-09 12:00:00 12 7 Norte 17 Norte 0 901.6 0.5 42
2020-03-09 11:00:00 9.8 8 Noroeste 21 Noroeste 0 901.8 1.2 52
2020-03-09 10:00:00 7.7 4 Noroeste 13 Norte 0 901.4 0.9 63
2020-03-09 09:00:00 4.6 8 Noroeste 15 Noroeste 0 901.1 1.1 87
2020-03-09 08:00:00 3.2 6 Oeste 12 Oeste 0 900.6 0.8 92
2020-03-09 07:00:00 4.1 2 Noroeste 9 Oeste 0 900.5 0.8 89
2020-03-09 06:00:00 4.3 0 Calma 13 Noroeste 0 900 0.7 90
2020-03-09 05:00:00 4.5 3 Noroeste 21 Oeste 0 899.8 0.3 89
2020-03-09 04:00:00 4.9 6 Noroeste 15 Noroeste 0 899.7 0 86
2020-03-09 03:00:00 5.9 4 Norte 25 Noroeste 0 899.3 0 81
2020-03-09 02:00:00 6.6 13 Oeste 28 Oeste 0 899.5 -0.3 80
2020-03-09 01:00:00 7.5 11 Noroeste 25 Oeste 0 899.7 -0.2 83
2020-03-09 00:00:00 7.7 11 Oeste 21 Oeste 0 899.3 -0.4 83
2020-03-08 23:00:00 8 12 Noroeste 25 Oeste 0 899.8 0.3 75
2020-03-08 22:00:00 8.2 11 Oeste 29 Sudoeste 0 899.9 0.9 70
2020-03-08 21:00:00 8.8 13 Oeste 27 Oeste 0 899.7 1.1 67
2020-03-08 20:00:00 9.5 3 Noroeste 12 Noroeste 0 899.5 0.8 68
2020-03-08 19:00:00 11.2 5 Oeste 25 Oeste 0 899 0.1 64
2020-03-08 18:00:00 13.2 6 Noroeste 25 Oeste 0 898.6 -0.2 57
2020-03-08 17:00:00 13 16 Oeste 37 Oeste 0 898.7 -0.3 58
2020-03-08 16:00:00 12.1 17 Oeste 33 Oeste 0 898.9 -1 52
2020-03-08 15:00:00 12.3 17 Oeste 32 Oeste 0 898.8 -1.8 55
2020-03-08 14:00:00 14.5 15 Oeste 27 Oeste 0 899 -1.5 44
2020-03-08 13:00:00 12.5 11 Noroeste 24 Oeste 0 899.9 -0.5 52
2020-03-08 12:00:00 10.5 15 Oeste 29 Noroeste 0 900.6 0.2 57
2020-03-08 11:00:00 10.1 12 Oeste 34 Oeste 0 900.5 0.5 61
2020-03-08 10:00:00 8.5 12 Noroeste 34 Oeste 0 900.4 0.9 68
2020-03-08 09:00:00 3.1 5 Oeste 19 Noroeste 0 900.4 0.9 94
2020-03-08 08:00:00 0.7 4 Norte 8 Oeste 0 900 0.4 97
2020-03-08 07:00:00 -1.8 2 Sudoeste 6 Este 0 899.5 -0.2 95
2020-03-08 06:00:00 -1.5 3 Sudeste 9 Noroeste 0 899.5 -0.3 92
2020-03-08 05:00:00 -1.3 0 Calma 6 Sudeste 0 899.6 -0.4 93
2020-03-08 04:00:00 -0.3 0 Calma 5 Nordeste 0 899.7 -1.3 92
2020-03-08 03:00:00 0.1 0 Calma 5 Norte 0 899.8 -1.6 92
2020-03-08 02:00:00 0.8 2 Este 6 Este 0 900 -1.6 91
2020-03-08 01:00:00 1.6 3 Nordeste 5 Este 0 901 -0.3 88
2020-03-08 00:00:00 3.4 4 Noroeste 9 Noroeste 0 901.4 0.2 85
2020-03-07 23:00:00 3.7 3 Noroeste 5 Noroeste 0 901.6 0.5 82
2020-03-07 22:00:00 4.7 4 Sudoeste 7 Sudoeste 0 901.3 0.7 79
2020-03-07 21:00:00 5.7 2 Nordeste 11 Nordeste 0 901.2 1 76
2020-03-07 20:00:00 7.4 4 Noroeste 19 Noroeste 0 901.1 0.9 70
2020-03-07 19:00:00 9.7 8 Noroeste 21 Sudoeste 0 900.6 0.5 60
2020-03-07 18:00:00 10.7 5 Nordeste 16 Norte 0 900.2 0.1 59
2020-03-07 17:00:00 12 6 Norte 20 Norte 0 900.2 -0.1 52
2020-03-07 16:00:00 12.7 7 Norte 21 Norte 0 900.1 -0.7 52
2020-03-07 15:00:00 10.6 8 Norte 30 Noroeste 0 900.1 -0.7 58
2020-03-07 14:00:00 11.5 11 Norte 29 Norte 0 900.3 -0.4 55
2020-03-07 13:00:00 10.9 10 Norte 26 Noroeste 0 900.8 0.6 63
2020-03-07 12:00:00 8.9 12 Norte 26 Norte 0 900.8 1 68
2020-03-07 11:00:00 6.9 8 Norte 21 Noroeste 0 900.7 1.7 77
2020-03-07 10:00:00 5.2 9 Noroeste 23 Norte 0 900.2 1.9 84
2020-03-07 09:00:00 3 9 Oeste 16 Oeste 0 899.8 1.8 91
2020-03-07 08:00:00 2.5 6 Oeste 19 Oeste 0 899 1.5 91
2020-03-07 07:00:00 2.1 12 Oeste 19 Oeste 0 898.3 0.5 91
2020-03-07 06:00:00 2.1 6 Noroeste 19 Noroeste 0 898 -0.3 89
2020-03-07 05:00:00 2.3 9 Noroeste 23 Oeste 0 897.5 -0.5 81
2020-03-07 04:00:00 3.2 12 Noroeste 27 Oeste 0 897.8 -0.4 62
2020-03-07 03:00:00 2.8 17 Oeste 46 Oeste 0 898.3 0.6 60
2020-03-07 02:00:00 2.8 13 Oeste 25 Oeste 0 898 0.4 74
2020-03-07 01:00:00 2.7 9 Oeste 16 Oeste 0 898.2 0.6 75
2020-03-07 00:00:00 2.4 8 Sudoeste 14 Sudoeste 0 897.7 1 74
2020-03-06 23:00:00 2.3 5 Sudoeste 10 Noroeste 0 897.6 1.8 74
2020-03-06 22:00:00 2 4 Sur 29 Noroeste 0 897.6 2.8 75
2020-03-06 21:00:00 2.5 9 Noroeste 35 Noroeste 0 896.7 2.6 68
2020-03-06 20:00:00 3.5 14 Norte 29 Norte 0 895.8 2.6 61
2020-03-06 19:00:00 4 13 Norte 36 Noroeste 0 894.8 2.2 61
2020-03-06 18:00:00 4.8 14 Norte 35 Noroeste 0 894.1 1.9 56
2020-03-06 17:00:00 5.5 11 Norte 33 Oeste 0 893.2 0.9 55
2020-03-06 16:00:00 5.9 13 Noroeste 42 Noroeste 0 892.6 0.4 53
2020-03-06 15:00:00 7.6 14 Norte 37 Oeste 0 892.2 0.1 46
2020-03-06 14:00:00 6.8 12 Norte 35 Noroeste 0 892.3 1.4 53
2020-03-06 13:00:00 6.1 15 Norte 36 Noroeste 0 892.2 2.1 59
2020-03-06 12:00:00 2.2 9 Noroeste 46 Noroeste 0.6 892.1 2.9 93
2020-03-06 11:00:00 4.6 20 Noroeste 42 Oeste 0 890.9 3 73
2020-03-06 10:00:00 4 19 Noroeste 48 Noroeste 0 890.1 2.3 75
2020-03-06 09:00:00 3 18 Noroeste 41 Norte 0 889.2 1.4 82
2020-03-06 08:00:00 2.3 14 Noroeste 39 Oeste 0.2 887.9 0.1 91
2020-03-06 07:00:00 3 15 Noroeste 37 Oeste 0 887.8 -0.7 88
2020-03-06 06:00:00 3 16 Oeste 42 Oeste 0.4 887.8 -1.4 87
2020-03-06 05:00:00 2.6 18 Oeste 34 Oeste 0.2 887.8 -1.5 94
2020-03-06 04:00:00 2.5 16 Oeste 38 Oeste 0.2 888.5 -0.9 92
2020-03-06 03:00:00 2.5 21 Oeste 37 Oeste 0 889.2 -0.5 86
2020-03-06 02:00:00 3 12 Oeste 30 Noroeste 0 889.3 -0.6 91
2020-03-06 01:00:00 3.1 14 Oeste 32 Oeste 0 889.4 -0.5 93
2020-03-06 00:00:00 2.9 10 Sudoeste 17 Oeste 0 889.7 0 95
2020-03-05 23:00:00 3.7 10 Oeste 15 Sudoeste 0 889.9 0.7 94
2020-03-05 22:00:00 4.2 3 Sur 10 Sudoeste 0 889.9 1.5 92
2020-03-05 21:00:00 4.5 3 Sudoeste 10 Noroeste 0 889.7 1.6 91
2020-03-05 20:00:00 5 5 Noroeste 30 Oeste 0 889.2 2.3 88
2020-03-05 19:00:00 5.6 12 Noroeste 37 Oeste 2 888.4 2 87
2020-03-05 18:00:00 6.9 15 Noroeste 45 Oeste 1 888.1 1.5 81
2020-03-05 17:00:00 11 23 Oeste 47 Oeste 0 886.9 0.3 59
2020-03-05 16:00:00 10.7 23 Oeste 54 Oeste 0 886.4 -0.9 57
2020-03-05 15:00:00 9.5 25 Oeste 54 Oeste 0 886.6 -0.4 60
2020-03-05 14:00:00 10 30 Oeste 63 Oeste 0 886.6 0.8 61
2020-03-05 13:00:00 8.2 26 Oeste 45 Noroeste 0 887.3 1.2 75
2020-03-05 12:00:00 7.2 24 Oeste 57 Oeste 0.8 887 0.1 86
2020-03-05 11:00:00 8.1 18 Sudoeste 33 Sudoeste 1.4 885.8 -1.3 97
2020-03-05 10:00:00 8.1 17 Sudoeste 29 Oeste 0.8 886.1 -1.2 96
2020-03-05 09:00:00 8.1 14 Sudoeste 26 Sudoeste 0.2 886.9 -1 93
2020-03-05 08:00:00 8.9 12 Sudoeste 39 Oeste 0 887.1 -1.6 85
2020-03-05 07:00:00 9 24 Oeste 45 Sudoeste 0 887.3 -2.3 88
2020-03-05 06:00:00 9.3 18 Oeste 41 Oeste 0 887.9 -3.4 87
2020-03-05 05:00:00 9 17 Oeste 32 Oeste 0 888.7 -3.1 92
2020-03-05 04:00:00 9.1 13 Oeste 35 Sudoeste 0 889.6 -3.1 89
2020-03-05 03:00:00 9 22 Oeste 37 Sudoeste 0 891.3 -2.4 90
2020-03-05 02:00:00 8.9 19 Oeste 33 Oeste 0 891.8 -2.2 90
2020-03-05 01:00:00 9.3 15 Oeste 29 Oeste 0 892.7 -1.8 87
2020-03-05 00:00:00 9.5 15 Oeste 27 Oeste 0 893.7 -1.1 86